createdAt,value
2018-05-06T00:00:16.598Z,46.55
2018-05-06T00:01:16.633Z,46.46
2018-05-06T00:02:16.716Z,46.53
2018-05-06T00:03:16.700Z,46.55
2018-05-06T00:04:16.605Z,46.43
2018-05-06T00:05:16.747Z,46.57
2018-05-06T00:06:16.665Z,46.55
2018-05-06T00:07:16.750Z,46.45
2018-05-06T00:08:16.705Z,46.59
2018-05-06T00:09:16.617Z,46.62
2018-05-06T00:10:16.564Z,46.52
2018-05-06T00:11:16.754Z,46.55
2018-05-06T00:12:16.662Z,46.56
2018-05-06T00:13:16.888Z,46.43
2018-05-06T00:14:16.756Z,46.57
2018-05-06T00:15:16.920Z,46.55
2018-05-06T00:16:16.576Z,46.48
2018-05-06T00:17:16.578Z,46.52
2018-05-06T00:18:16.740Z,46.56
2018-05-06T00:19:16.647Z,46.49
2018-05-06T00:20:16.613Z,46.56
2018-05-06T00:21:16.857Z,46.57
2018-05-06T00:22:16.806Z,46.49
2018-05-06T00:23:16.667Z,46.51
2018-05-06T00:24:16.645Z,46.54
2018-05-06T00:25:16.602Z,46.49
2018-05-06T00:26:16.564Z,46.54
2018-05-06T00:27:16.577Z,46.56
2018-05-06T00:28:16.530Z,46.5
2018-05-06T00:29:16.757Z,46.57
2018-05-06T00:30:16.615Z,46.58
2018-05-06T00:31:16.800Z,46.47
2018-05-06T00:32:16.653Z,46.57
2018-05-06T00:33:16.619Z,46.59
2018-05-06T00:34:16.533Z,46.5
2018-05-06T00:35:16.708Z,46.54
2018-05-06T00:36:16.679Z,46.6
2018-05-06T00:37:16.565Z,46.44
2018-05-06T00:38:16.789Z,46.56
2018-05-06T00:39:16.612Z,46.61
2018-05-06T00:40:16.645Z,46.5
2018-05-06T00:41:16.754Z,46.55
2018-05-06T00:42:16.649Z,46.6
2018-05-06T00:43:16.628Z,46.49
2018-05-06T00:44:16.655Z,46.54
2018-05-06T00:45:16.655Z,46.59
2018-05-06T00:46:16.646Z,46.46
2018-05-06T00:47:16.818Z,46.58
2018-05-06T00:48:16.779Z,46.58
2018-05-06T00:49:16.731Z,46.5
2018-05-06T00:50:16.821Z,46.53
2018-05-06T00:51:16.750Z,46.56
2018-05-06T00:52:16.556Z,46.5
2018-05-06T00:53:16.694Z,46.56
2018-05-06T00:54:16.669Z,46.56
2018-05-06T00:55:16.689Z,46.47
2018-05-06T00:56:16.583Z,46.51
2018-05-06T00:57:16.687Z,46.53
2018-05-06T00:58:16.633Z,46.49
2018-05-06T00:59:16.739Z,46.53
2018-05-06T01:00:16.712Z,46.54
2018-05-06T01:01:16.758Z,46.44
2018-05-06T01:02:16.746Z,46.51
2018-05-06T01:03:16.769Z,46.58
2018-05-06T01:04:16.510Z,46.45
2018-05-06T01:05:16.823Z,46.55
2018-05-06T01:06:16.680Z,46.6
2018-05-06T01:07:16.751Z,46.46
2018-05-06T01:08:16.530Z,46.55
2018-05-06T01:09:16.640Z,46.55
2018-05-06T01:10:16.715Z,46.45
2018-05-06T01:11:16.714Z,46.54
2018-05-06T01:12:16.569Z,46.53
2018-05-06T01:13:16.783Z,46.48
2018-05-06T01:14:16.608Z,46.56
2018-05-06T01:15:16.766Z,46.58
2018-05-06T01:16:16.656Z,46.46
2018-05-06T01:17:16.752Z,46.58
2018-05-06T01:18:16.648Z,46.58
2018-05-06T01:19:16.775Z,46.43
2018-05-06T01:20:16.633Z,46.55
2018-05-06T01:21:16.778Z,46.58
2018-05-06T01:22:16.542Z,46.43
2018-05-06T01:23:16.619Z,46.54
2018-05-06T01:24:16.915Z,46.58
2018-05-06T01:25:16.764Z,46.5
2018-05-06T01:26:16.729Z,46.55
2018-05-06T01:27:16.758Z,46.58
2018-05-06T01:28:16.674Z,46.43
2018-05-06T01:29:16.615Z,46.5
2018-05-06T01:30:16.573Z,46.52
2018-05-06T01:31:16.748Z,46.46
2018-05-06T01:32:16.628Z,46.5
2018-05-06T01:33:16.729Z,46.55
2018-05-06T01:34:16.567Z,46.49
2018-05-06T01:35:16.572Z,46.46
2018-05-06T01:36:16.755Z,46.53
2018-05-06T01:37:16.619Z,46.45
2018-05-06T01:38:16.572Z,46.54
2018-05-06T01:39:16.736Z,46.58
2018-05-06T01:40:16.507Z,46.41
2018-05-06T01:41:16.520Z,46.48
2018-05-06T01:42:16.471Z,46.51
2018-05-06T01:43:16.675Z,46.45
2018-05-06T01:44:16.698Z,46.5
2018-05-06T01:45:16.645Z,46.52
2018-05-06T01:46:16.555Z,46.45
2018-05-06T01:47:16.527Z,46.5
2018-05-06T01:48:16.514Z,46.54
2018-05-06T01:49:16.612Z,46.4
2018-05-06T01:50:16.801Z,46.46
2018-05-06T01:51:16.586Z,46.53
2018-05-06T01:52:16.615Z,46.43
2018-05-06T01:53:16.721Z,46.54
2018-05-06T01:54:16.780Z,46.55
2018-05-06T01:55:16.667Z,46.4
2018-05-06T01:56:16.688Z,46.5
2018-05-06T01:57:16.691Z,46.5
2018-05-06T01:58:16.532Z,46.37
2018-05-06T01:59:16.703Z,46.48
2018-05-06T02:00:16.692Z,46.55
2018-05-06T02:01:16.486Z,46.41
2018-05-06T02:02:16.683Z,46.47
2018-05-06T02:03:16.926Z,46.49
2018-05-06T02:04:16.516Z,46.4
2018-05-06T02:05:16.671Z,46.55
2018-05-06T02:06:16.689Z,46.53
2018-05-06T02:07:16.665Z,46.46
2018-05-06T02:08:16.555Z,46.49
2018-05-06T02:09:16.727Z,46.52
2018-05-06T02:10:16.635Z,46.39
2018-05-06T02:11:16.761Z,46.48
2018-05-06T02:12:16.654Z,46.53
2018-05-06T02:13:16.551Z,46.42
2018-05-06T02:14:16.639Z,46.47
2018-05-06T02:15:16.611Z,46.53
2018-05-06T02:16:16.514Z,46.41
2018-05-06T02:17:16.632Z,46.51
2018-05-06T02:18:16.801Z,46.55
2018-05-06T02:19:16.583Z,46.4
2018-05-06T02:20:16.667Z,46.48
2018-05-06T02:21:16.682Z,46.46
2018-05-06T02:22:16.920Z,46.41
2018-05-06T02:23:16.558Z,46.49
2018-05-06T02:24:16.746Z,46.51
2018-05-06T02:25:16.640Z,46.37
2018-05-06T02:26:16.844Z,46.47
2018-05-06T02:27:16.696Z,46.48
2018-05-06T02:28:16.685Z,46.39
2018-05-06T02:29:16.651Z,46.44
2018-05-06T02:30:16.909Z,46.52
2018-05-06T02:31:16.702Z,46.38
2018-05-06T02:32:16.793Z,46.5
2018-05-06T02:33:16.567Z,46.52
2018-05-06T02:34:16.612Z,46.4
2018-05-06T02:35:16.770Z,46.44
2018-05-06T02:36:16.667Z,46.54
2018-05-06T02:37:16.669Z,46.42
2018-05-06T02:38:16.670Z,46.5
2018-05-06T02:39:16.518Z,46.54
2018-05-06T02:40:16.683Z,46.43
2018-05-06T02:41:16.458Z,46.46
2018-05-06T02:42:16.769Z,46.52
2018-05-06T02:43:16.660Z,46.33
2018-05-06T02:44:16.690Z,46.46
2018-05-06T02:45:16.551Z,46.57
2018-05-06T02:46:16.554Z,46.39
2018-05-06T02:47:16.668Z,46.46
2018-05-06T02:48:16.753Z,46.53
2018-05-06T02:49:16.643Z,46.39
2018-05-06T02:50:16.610Z,46.49
2018-05-06T02:51:16.560Z,46.49
2018-05-06T02:52:16.545Z,46.4
2018-05-06T02:53:16.624Z,46.44
2018-05-06T02:54:16.670Z,46.48
2018-05-06T02:55:16.505Z,46.35
2018-05-06T02:56:16.487Z,46.47
2018-05-06T02:57:16.648Z,46.49
2018-05-06T02:58:16.575Z,46.41
2018-05-06T02:59:16.483Z,46.5
2018-05-06T03:00:16.843Z,46.48
2018-05-06T03:01:16.712Z,46.38
2018-05-06T03:02:16.804Z,46.43
2018-05-06T03:03:16.663Z,46.53
2018-05-06T03:04:16.696Z,46.41
2018-05-06T03:05:16.650Z,46.48
2018-05-06T03:06:16.725Z,46.51
2018-05-06T03:07:16.604Z,46.35
2018-05-06T03:08:16.511Z,46.44
2018-05-06T03:09:16.747Z,46.49
2018-05-06T03:10:16.527Z,46.32
2018-05-06T03:11:16.698Z,46.44
2018-05-06T03:12:16.521Z,46.5
2018-05-06T03:13:16.711Z,46.43
2018-05-06T03:14:16.620Z,46.49
2018-05-06T03:15:16.789Z,46.53
2018-05-06T03:16:16.728Z,46.33
2018-05-06T03:17:16.565Z,46.42
2018-05-06T03:18:16.708Z,46.51
2018-05-06T03:19:16.690Z,46.37
2018-05-06T03:20:16.596Z,46.43
2018-05-06T03:21:16.570Z,46.46
2018-05-06T03:22:16.645Z,46.37
2018-05-06T03:23:16.620Z,46.42
2018-05-06T03:24:16.704Z,46.48
2018-05-06T03:25:16.687Z,46.38
2018-05-06T03:26:16.551Z,46.45
2018-05-06T03:27:16.702Z,46.46
2018-05-06T03:28:16.441Z,46.34
2018-05-06T03:29:16.620Z,46.45
2018-05-06T03:30:16.607Z,46.5
2018-05-06T03:31:16.688Z,46.39
2018-05-06T03:32:16.688Z,46.48
2018-05-06T03:33:16.672Z,46.51
2018-05-06T03:34:16.592Z,46.3
2018-05-06T03:35:16.739Z,46.46
2018-05-06T03:36:16.466Z,46.5
2018-05-06T03:37:16.580Z,46.39
2018-05-06T03:38:16.668Z,46.48
2018-05-06T03:39:16.560Z,46.49
2018-05-06T03:40:16.529Z,46.34
2018-05-06T03:41:16.517Z,46.41
2018-05-06T03:42:16.807Z,46.47
2018-05-06T03:43:16.633Z,46.4
2018-05-06T03:44:16.597Z,46.47
2018-05-06T03:45:16.617Z,46.52
2018-05-06T03:46:16.470Z,46.39
2018-05-06T03:47:16.630Z,46.46
2018-05-06T03:48:16.612Z,46.43
2018-05-06T03:49:16.731Z,46.37
2018-05-06T03:50:16.677Z,46.47
2018-05-06T03:51:16.513Z,46.5
2018-05-06T03:52:16.777Z,46.38
2018-05-06T03:53:16.614Z,46.43
2018-05-06T03:54:16.586Z,46.47
2018-05-06T03:55:16.682Z,46.38
2018-05-06T03:56:16.743Z,46.44
2018-05-06T03:57:16.698Z,46.47
2018-05-06T03:58:16.687Z,46.32
2018-05-06T03:59:16.563Z,46.45
2018-05-06T04:00:16.675Z,46.49
2018-05-06T04:01:16.602Z,46.32
2018-05-06T04:02:16.690Z,46.45
2018-05-06T04:03:16.711Z,46.46
2018-05-06T04:04:16.466Z,46.33
2018-05-06T04:05:16.678Z,46.39
2018-05-06T04:06:16.668Z,46.42
2018-05-06T04:07:16.489Z,46.35
2018-05-06T04:08:16.698Z,46.44
2018-05-06T04:09:16.504Z,46.45
2018-05-06T04:10:16.717Z,46.33
2018-05-06T04:11:16.637Z,46.43
2018-05-06T04:12:16.510Z,46.46
2018-05-06T04:13:16.720Z,46.27
2018-05-06T04:14:16.612Z,46.41
2018-05-06T04:15:16.540Z,46.47
2018-05-06T04:16:16.757Z,46.33
2018-05-06T04:17:16.563Z,46.41
2018-05-06T04:18:16.623Z,46.43
2018-05-06T04:19:16.596Z,46.31
2018-05-06T04:20:16.587Z,46.39
2018-05-06T04:21:16.649Z,46.48
2018-05-06T04:22:16.477Z,46.33
2018-05-06T04:23:16.630Z,46.46
2018-05-06T04:24:16.692Z,46.46
2018-05-06T04:25:16.700Z,46.31
2018-05-06T04:26:16.768Z,46.41
2018-05-06T04:27:16.722Z,46.45
2018-05-06T04:28:16.499Z,46.34
2018-05-06T04:29:16.582Z,46.41
2018-05-06T04:30:16.497Z,46.43
2018-05-06T04:31:16.511Z,46.29
2018-05-06T04:32:16.714Z,46.38
2018-05-06T04:33:16.720Z,46.44
2018-05-06T04:34:16.733Z,46.32
2018-05-06T04:35:16.686Z,46.37
2018-05-06T04:36:16.711Z,46.45
2018-05-06T04:37:16.656Z,46.28
2018-05-06T04:38:16.692Z,46.38
2018-05-06T04:39:16.708Z,46.38
2018-05-06T04:40:16.416Z,46.32
2018-05-06T04:41:16.653Z,46.4
2018-05-06T04:42:16.707Z,46.44
2018-05-06T04:43:16.673Z,46.31
2018-05-06T04:44:16.694Z,46.41
2018-05-06T04:45:16.686Z,46.44
2018-05-06T04:46:16.640Z,46.31
2018-05-06T04:47:16.743Z,46.39
2018-05-06T04:48:16.497Z,46.41
2018-05-06T04:49:16.598Z,46.28
2018-05-06T04:50:16.491Z,46.34
2018-05-06T04:51:16.636Z,46.39
2018-05-06T04:52:16.441Z,46.36
2018-05-06T04:53:16.507Z,46.37
2018-05-06T04:54:16.612Z,46.43
2018-05-06T04:55:16.493Z,46.28
2018-05-06T04:56:16.740Z,46.35
2018-05-06T04:57:16.649Z,46.42
2018-05-06T04:58:16.434Z,46.28
2018-05-06T04:59:16.480Z,46.37
2018-05-06T05:00:16.509Z,46.4
2018-05-06T05:01:16.573Z,46.27
2018-05-06T05:02:16.643Z,46.37
2018-05-06T05:03:16.659Z,46.47
2018-05-06T05:04:16.708Z,46.28
2018-05-06T05:05:16.567Z,46.4
2018-05-06T05:06:16.479Z,46.37
2018-05-06T05:07:16.591Z,46.32
2018-05-06T05:08:16.654Z,46.41
2018-05-06T05:09:16.562Z,46.4
2018-05-06T05:10:16.445Z,46.28
2018-05-06T05:11:16.524Z,46.36
2018-05-06T05:12:16.622Z,46.45
2018-05-06T05:13:16.572Z,46.21
2018-05-06T05:14:16.460Z,46.36
2018-05-06T05:15:16.661Z,46.41
2018-05-06T05:16:16.431Z,46.25
2018-05-06T05:17:16.463Z,46.37
2018-05-06T05:18:16.508Z,46.43
2018-05-06T05:19:16.664Z,46.24
2018-05-06T05:20:16.685Z,46.35
2018-05-06T05:21:16.518Z,46.37
2018-05-06T05:22:16.601Z,46.26
2018-05-06T05:23:16.675Z,46.34
2018-05-06T05:24:16.558Z,46.42
2018-05-06T05:25:16.738Z,46.32
2018-05-06T05:26:16.457Z,46.33
2018-05-06T05:27:16.697Z,46.41
2018-05-06T05:28:16.645Z,46.29
2018-05-06T05:29:16.586Z,46.37
2018-05-06T05:30:16.529Z,46.39
2018-05-06T05:31:16.685Z,46.28
2018-05-06T05:32:16.594Z,46.35
2018-05-06T05:33:16.617Z,46.42
2018-05-06T05:34:16.477Z,46.3
2018-05-06T05:35:16.558Z,46.39
2018-05-06T05:36:16.705Z,46.4
2018-05-06T05:37:16.756Z,46.27
2018-05-06T05:38:16.641Z,46.38
2018-05-06T05:39:16.695Z,46.4
2018-05-06T05:40:16.658Z,46.25
2018-05-06T05:41:16.667Z,46.31
2018-05-06T05:42:16.676Z,46.36
2018-05-06T05:43:16.472Z,46.31
2018-05-06T05:44:16.667Z,46.37
2018-05-06T05:45:16.587Z,46.38
2018-05-06T05:46:16.676Z,46.28
2018-05-06T05:47:16.660Z,46.36
2018-05-06T05:48:16.511Z,46.43
2018-05-06T05:49:16.495Z,46.28
2018-05-06T05:50:16.664Z,46.32
2018-05-06T05:51:16.604Z,46.4
2018-05-06T05:52:16.473Z,46.25
2018-05-06T05:53:16.608Z,46.37
2018-05-06T05:54:16.541Z,46.37
2018-05-06T05:55:16.649Z,46.32
2018-05-06T05:56:16.507Z,46.36
2018-05-06T05:57:16.621Z,46.34
2018-05-06T05:58:16.516Z,46.22
2018-05-06T05:59:16.489Z,46.29
2018-05-06T06:00:16.523Z,46.35
2018-05-06T06:01:16.484Z,46.25
2018-05-06T06:02:16.509Z,46.36
2018-05-06T06:03:16.484Z,46.39
2018-05-06T06:04:16.595Z,46.29
2018-05-06T06:05:16.623Z,46.33
2018-05-06T06:06:16.477Z,46.54
2018-05-06T06:07:16.696Z,46.26
2018-05-06T06:08:16.570Z,46.39
2018-05-06T06:09:16.463Z,46.38
2018-05-06T06:10:21.498Z,46.24
2018-05-06T06:11:16.482Z,46.33
2018-05-06T06:12:16.696Z,46.32
2018-05-06T06:13:16.613Z,46.24
2018-05-06T06:14:16.616Z,46.27
2018-05-06T06:15:16.520Z,46.35
2018-05-06T06:16:16.530Z,46.26
2018-05-06T06:17:16.427Z,46.27
2018-05-06T06:18:16.908Z,46.35
2018-05-06T06:19:16.661Z,46.23
2018-05-06T06:20:16.576Z,46.28
2018-05-06T06:21:16.608Z,46.31
2018-05-06T06:22:16.448Z,46.23
2018-05-06T06:23:16.446Z,46.29
2018-05-06T06:24:16.407Z,46.32
2018-05-06T06:25:16.506Z,46.15
2018-05-06T06:26:16.644Z,46.24
2018-05-06T06:27:16.448Z,46.32
2018-05-06T06:28:16.612Z,46.25
2018-05-06T06:29:16.710Z,46.3
2018-05-06T06:30:16.449Z,46.3
2018-05-06T06:31:16.458Z,46.2
2018-05-06T06:32:16.688Z,46.29
2018-05-06T06:33:16.450Z,46.29
2018-05-06T06:34:16.510Z,46.22
2018-05-06T06:35:16.651Z,46.27
2018-05-06T06:36:16.520Z,46.29
2018-05-06T06:37:16.713Z,46.16
2018-05-06T06:38:16.799Z,46.25
2018-05-06T06:39:16.452Z,46.25
2018-05-06T06:40:16.605Z,46.22
2018-05-06T06:41:16.438Z,46.21
2018-05-06T06:42:16.630Z,46.37
2018-05-06T06:43:16.692Z,46.18
2018-05-06T06:44:16.689Z,46.26
2018-05-06T06:45:16.466Z,46.26
2018-05-06T06:46:16.676Z,46.22
2018-05-06T06:47:16.571Z,46.22
2018-05-06T06:48:16.542Z,46.29
2018-05-06T06:49:16.468Z,46.18
2018-05-06T06:50:16.532Z,46.24
2018-05-06T06:51:16.652Z,46.29
2018-05-06T06:52:16.578Z,46.21
2018-05-06T06:53:16.450Z,46.24
2018-05-06T06:54:16.520Z,46.32
2018-05-06T06:55:16.487Z,46.13
2018-05-06T06:56:16.688Z,46.27
2018-05-06T06:57:16.509Z,46.28
2018-05-06T06:58:16.659Z,46.19
2018-05-06T06:59:16.411Z,46.3
2018-05-06T07:00:16.544Z,46.31
2018-05-06T07:01:16.404Z,46.19
2018-05-06T07:02:16.705Z,46.22
2018-05-06T07:03:16.497Z,46.25
2018-05-06T07:04:16.354Z,46.15
2018-05-06T07:05:16.584Z,46.25
2018-05-06T07:06:16.487Z,46.28
2018-05-06T07:07:16.603Z,46.22
2018-05-06T07:08:16.424Z,46.22
2018-05-06T07:09:16.416Z,46.27
2018-05-06T07:10:16.612Z,46.16
2018-05-06T07:11:16.751Z,46.24
2018-05-06T07:12:16.569Z,46.27
2018-05-06T07:13:16.481Z,46.16
2018-05-06T07:14:16.435Z,46.21
2018-05-06T07:15:16.696Z,46.3
2018-05-06T07:16:16.521Z,46.21
2018-05-06T07:17:16.423Z,46.23
2018-05-06T07:18:16.600Z,46.22
2018-05-06T07:19:16.568Z,46.2
2018-05-06T07:20:16.417Z,46.25
2018-05-06T07:21:16.622Z,46.25
2018-05-06T07:22:16.458Z,46.17
2018-05-06T07:23:16.519Z,46.25
2018-05-06T07:24:16.678Z,46.25
2018-05-06T07:25:16.436Z,46.21
2018-05-06T07:26:16.477Z,46.21
2018-05-06T07:27:16.615Z,46.29
2018-05-06T07:28:16.676Z,46.17
2018-05-06T07:29:16.524Z,46.2
2018-05-06T07:30:16.543Z,46.26
2018-05-06T07:31:16.642Z,46.21
2018-05-06T07:32:16.520Z,46.23
2018-05-06T07:33:16.609Z,46.24
2018-05-06T07:34:16.771Z,46.16
2018-05-06T07:35:16.417Z,46.22
2018-05-06T07:36:16.613Z,46.26
2018-05-06T07:37:16.798Z,46.21
2018-05-06T07:38:16.638Z,46.21
2018-05-06T07:39:16.662Z,46.27
2018-05-06T07:40:16.616Z,46.12
2018-05-06T07:41:16.632Z,46.22
2018-05-06T07:42:16.516Z,46.23
2018-05-06T07:43:16.455Z,46.16
2018-05-06T07:44:16.494Z,46.26
2018-05-06T07:45:16.676Z,46.26
2018-05-06T07:46:16.663Z,46.11
2018-05-06T07:47:16.633Z,46.26
2018-05-06T07:48:16.449Z,46.23
2018-05-06T07:49:16.666Z,46.23
2018-05-06T07:50:16.631Z,46.21
2018-05-06T07:51:16.644Z,46.29
2018-05-06T07:52:16.646Z,46.21
2018-05-06T07:53:16.498Z,46.24
2018-05-06T07:54:16.555Z,46.23
2018-05-06T07:55:16.440Z,46.1
2018-05-06T07:56:16.418Z,46.21
2018-05-06T07:57:16.633Z,46.21
2018-05-06T07:58:16.391Z,46.12
2018-05-06T07:59:16.379Z,46.18
2018-05-06T08:00:16.530Z,46.24
2018-05-06T08:01:16.457Z,46.17
2018-05-06T08:02:16.605Z,46.13
2018-05-06T08:03:16.474Z,46.23
2018-05-06T08:04:16.405Z,46.14
2018-05-06T08:05:16.556Z,46.25
2018-05-06T08:06:16.587Z,46.19
2018-05-06T08:07:16.418Z,46.16
2018-05-06T08:08:16.544Z,46.14
2018-05-06T08:09:16.640Z,46.25
2018-05-06T08:10:16.512Z,46.15
2018-05-06T08:11:16.406Z,46.25
2018-05-06T08:12:16.594Z,46.23
2018-05-06T08:13:16.388Z,46.15
2018-05-06T08:14:16.408Z,46.25
2018-05-06T08:15:16.572Z,46.3
2018-05-06T08:16:16.775Z,46.17
2018-05-06T08:17:16.604Z,46.3
2018-05-06T08:18:16.703Z,46.33
2018-05-06T08:19:16.567Z,46.13
2018-05-06T08:20:16.454Z,46.17
2018-05-06T08:21:16.382Z,46.14
2018-05-06T08:22:16.629Z,46.09
2018-05-06T08:23:16.676Z,46.04
2018-05-06T08:24:16.641Z,46.11
2018-05-06T08:25:16.632Z,46.39
2018-05-06T08:26:16.531Z,46.31
2018-05-06T08:27:16.654Z,46.24
2018-05-06T08:28:16.486Z,46.29
2018-05-06T08:29:16.377Z,46.39
2018-05-06T08:30:16.565Z,46.41
2018-05-06T08:31:16.570Z,46.45
2018-05-06T08:32:16.679Z,46.49
2018-05-06T08:33:16.447Z,46.58
2018-05-06T08:34:16.436Z,46.61
2018-05-06T08:35:16.636Z,46.74
2018-05-06T08:36:16.484Z,46.78
2018-05-06T08:37:16.547Z,46.63
2018-05-06T08:38:16.454Z,46.92
2018-05-06T08:39:16.594Z,46.9
2018-05-06T08:40:16.679Z,46.92
2018-05-06T08:41:16.628Z,46.89
2018-05-06T08:42:16.495Z,46.96
2018-05-06T08:43:16.748Z,46.87
2018-05-06T08:44:16.644Z,46.95
2018-05-06T08:45:16.560Z,47.06
2018-05-06T08:46:17.071Z,46.91
2018-05-06T08:47:16.489Z,46.91
2018-05-06T08:48:16.614Z,46.96
2018-05-06T08:49:16.652Z,46.91
2018-05-06T08:50:16.687Z,46.94
2018-05-06T08:51:16.623Z,46.99
2018-05-06T08:52:16.563Z,46.85
2018-05-06T08:53:16.562Z,46.92
2018-05-06T08:54:16.542Z,47.07
2018-05-06T08:55:16.591Z,46.91
2018-05-06T08:56:21.822Z,46.99
2018-05-06T08:57:17.494Z,47
2018-05-06T08:58:16.555Z,46.97
2018-05-06T08:59:16.560Z,46.99
2018-05-06T09:00:16.553Z,47.04
2018-05-06T09:01:16.612Z,47
2018-05-06T09:02:16.384Z,46.95
2018-05-06T09:03:16.466Z,47.01
2018-05-06T09:04:16.512Z,47
2018-05-06T09:05:16.490Z,47
2018-05-06T09:06:16.571Z,47.03
2018-05-06T09:07:16.590Z,46.98
2018-05-06T09:08:16.616Z,46.98
2018-05-06T09:09:16.359Z,47.01
2018-05-06T09:10:16.612Z,46.93
2018-05-06T09:11:16.387Z,47.01
2018-05-06T09:12:16.598Z,47.03
2018-05-06T09:13:16.489Z,46.91
2018-05-06T09:14:16.513Z,46.97
2018-05-06T09:15:16.609Z,46.96
2018-05-06T09:16:16.493Z,46.93
2018-05-06T09:17:16.671Z,46.95
2018-05-06T09:18:16.501Z,46.96
2018-05-06T09:19:16.428Z,46.83
2018-05-06T09:20:16.572Z,46.88
2018-05-06T09:21:16.579Z,46.9
2018-05-06T09:22:16.373Z,46.87
2018-05-06T09:23:16.655Z,47.08
2018-05-06T09:24:16.497Z,47.06
2018-05-06T09:25:16.695Z,46.78
2018-05-06T09:26:16.457Z,46.83
2018-05-06T09:27:16.430Z,46.85
2018-05-06T09:28:16.622Z,46.91
2018-05-06T09:29:16.433Z,46.95
2018-05-06T09:30:16.495Z,47.02
2018-05-06T09:31:16.522Z,46.83
2018-05-06T09:32:16.667Z,46.83
2018-05-06T09:33:16.642Z,46.92
2018-05-06T09:34:16.308Z,46.82
2018-05-06T09:35:16.655Z,46.87
2018-05-06T09:36:16.523Z,46.93
2018-05-06T09:37:16.613Z,46.81
2018-05-06T09:38:16.526Z,46.87
2018-05-06T09:39:16.503Z,46.87
2018-05-06T09:40:16.365Z,46.84
2018-05-06T09:41:16.726Z,46.87
2018-05-06T09:42:16.637Z,46.95
2018-05-06T09:43:16.522Z,46.72
2018-05-06T09:44:16.671Z,46.83
2018-05-06T09:45:16.536Z,46.81
2018-05-06T09:46:16.393Z,46.77
2018-05-06T09:47:16.608Z,46.91
2018-05-06T09:48:16.512Z,46.91
2018-05-06T09:49:16.485Z,46.82
2018-05-06T09:50:16.398Z,46.85
2018-05-06T09:51:16.504Z,46.86
2018-05-06T09:52:16.667Z,46.8
2018-05-06T09:53:16.668Z,46.86
2018-05-06T09:54:16.590Z,46.92
2018-05-06T09:55:16.396Z,46.79
2018-05-06T09:56:16.507Z,46.86
2018-05-06T09:57:16.398Z,46.88
2018-05-06T09:58:16.356Z,46.83
2018-05-06T09:59:16.487Z,46.9
2018-05-06T10:00:16.407Z,46.86
2018-05-06T10:01:16.636Z,46.74
2018-05-06T10:02:16.540Z,46.84
2018-05-06T10:03:16.566Z,46.86
2018-05-06T10:04:16.513Z,46.76
2018-05-06T10:05:16.580Z,46.82
2018-05-06T10:06:16.457Z,46.85
2018-05-06T10:07:16.528Z,46.79
2018-05-06T10:08:16.748Z,46.85
2018-05-06T10:09:16.555Z,46.88
2018-05-06T10:10:16.504Z,46.78
2018-05-06T10:11:16.635Z,46.85
2018-05-06T10:12:16.508Z,46.84
2018-05-06T10:13:16.705Z,46.83
2018-05-06T10:14:16.684Z,46.83
2018-05-06T10:15:16.553Z,46.88
2018-05-06T10:16:16.383Z,46.81
2018-05-06T10:17:16.620Z,46.88
2018-05-06T10:18:16.545Z,46.93
2018-05-06T10:19:16.403Z,46.84
2018-05-06T10:20:16.590Z,46.92
2018-05-06T10:21:16.517Z,46.94
2018-05-06T10:22:16.425Z,46.84
2018-05-06T10:23:16.573Z,46.93
2018-05-06T10:24:16.443Z,46.95
2018-05-06T10:25:16.493Z,46.93
2018-05-06T10:26:16.815Z,46.97
2018-05-06T10:27:16.599Z,47
2018-05-06T10:28:16.473Z,47.03
2018-05-06T10:29:16.645Z,46.98
2018-05-06T10:30:16.461Z,46.91
2018-05-06T10:31:16.485Z,46.9
2018-05-06T10:32:16.395Z,46.92
2018-05-06T10:33:16.441Z,46.98
2018-05-06T10:34:16.527Z,46.89
2018-05-06T10:35:16.533Z,46.9
2018-05-06T10:36:16.580Z,46.94
2018-05-06T10:37:16.432Z,46.84
2018-05-06T10:38:16.720Z,46.96
2018-05-06T10:39:16.447Z,46.94
2018-05-06T10:40:16.458Z,46.87
2018-05-06T10:41:16.735Z,46.91
2018-05-06T10:42:16.557Z,46.89
2018-05-06T10:43:16.781Z,46.75
2018-05-06T10:44:16.726Z,46.82
2018-05-06T10:45:16.677Z,46.86
2018-05-06T10:46:16.389Z,46.77
2018-05-06T10:47:16.521Z,46.7
2018-05-06T10:48:16.582Z,46.76
2018-05-06T10:49:16.856Z,46.69
2018-05-06T10:50:19.428Z,46.84
2018-05-06T10:51:16.529Z,46.92
2018-05-06T10:52:16.336Z,46.78
2018-05-06T10:53:16.574Z,46.84
2018-05-06T10:54:16.713Z,46.88
2018-05-06T10:55:16.484Z,46.62
2018-05-06T10:56:16.554Z,46.71
2018-05-06T10:57:16.497Z,46.81
2018-05-06T10:58:16.580Z,46.72
2018-05-06T10:59:16.573Z,46.78
2018-05-06T11:00:16.627Z,46.84
2018-05-06T11:01:16.353Z,46.84
2018-05-06T11:02:16.699Z,46.81
2018-05-06T11:03:16.581Z,46.9
2018-05-06T11:04:16.647Z,46.9
2018-05-06T11:05:16.727Z,46.9
2018-05-06T11:06:16.464Z,46.92
2018-05-06T11:07:16.497Z,46.79
2018-05-06T11:08:16.616Z,46.85
2018-05-06T11:09:16.448Z,46.92
2018-05-06T11:10:16.461Z,46.76
2018-05-06T11:11:16.429Z,46.85
2018-05-06T11:12:16.460Z,46.88
2018-05-06T11:13:16.606Z,46.82
2018-05-06T11:14:16.431Z,46.78
2018-05-06T11:15:16.543Z,46.77
2018-05-06T11:16:16.349Z,46.73
2018-05-06T11:17:16.520Z,46.81
2018-05-06T11:18:16.551Z,46.84
2018-05-06T11:19:16.501Z,46.83
2018-05-06T11:20:18.533Z,46.87
2018-05-06T11:21:16.363Z,46.87
2018-05-06T11:22:16.365Z,46.84
2018-05-06T11:23:16.667Z,46.83
2018-05-06T11:24:16.535Z,46.84
2018-05-06T11:25:16.363Z,46.79
2018-05-06T11:26:16.588Z,46.84
2018-05-06T11:27:16.490Z,46.86
2018-05-06T11:28:16.364Z,46.79
2018-05-06T11:29:16.595Z,46.84
2018-05-06T11:30:16.364Z,46.83
2018-05-06T11:31:16.287Z,46.76
2018-05-06T11:32:16.471Z,46.79
2018-05-06T11:33:16.407Z,46.82
2018-05-06T11:34:16.517Z,46.73
2018-05-06T11:35:16.445Z,46.71
2018-05-06T11:36:16.448Z,46.82
2018-05-06T11:37:16.346Z,46.69
2018-05-06T11:38:16.487Z,46.73
2018-05-06T11:39:16.393Z,46.79
2018-05-06T11:40:16.567Z,46.7
2018-05-06T11:41:16.523Z,46.72
2018-05-06T11:42:16.404Z,46.75
2018-05-06T11:43:16.646Z,46.73
2018-05-06T11:44:16.534Z,46.78
2018-05-06T11:45:16.583Z,46.88
2018-05-06T11:46:16.354Z,46.66
2018-05-06T11:47:16.436Z,46.71
2018-05-06T11:48:16.357Z,46.67
2018-05-06T11:49:16.489Z,46.64
2018-05-06T11:50:16.497Z,46.64
2018-05-06T11:51:16.424Z,46.58
2018-05-06T11:52:16.575Z,46.53
2018-05-06T11:53:16.406Z,46.54
2018-05-06T11:54:16.570Z,46.6
2018-05-06T11:55:16.349Z,46.5
2018-05-06T11:56:16.560Z,46.58
2018-05-06T11:57:16.403Z,46.58
2018-05-06T11:58:17.138Z,46.48
2018-05-06T11:59:16.410Z,46.53
2018-05-06T12:00:16.486Z,46.58
2018-05-06T12:01:16.490Z,46.48
2018-05-06T12:02:16.778Z,46.54
2018-05-06T12:03:16.531Z,46.61
2018-05-06T12:04:16.299Z,46.47
2018-05-06T12:05:16.497Z,46.5
2018-05-06T12:06:16.444Z,46.57
2018-05-06T12:07:16.523Z,46.52
2018-05-06T12:08:16.458Z,46.53
2018-05-06T12:09:16.425Z,46.59
2018-05-06T12:10:16.504Z,46.53
2018-05-06T12:11:16.655Z,46.56
2018-05-06T12:12:16.443Z,46.64
2018-05-06T12:13:16.526Z,46.44
2018-05-06T12:14:16.494Z,46.57
2018-05-06T12:15:16.475Z,46.55
2018-05-06T12:16:16.338Z,46.52
2018-05-06T12:17:16.395Z,46.62
2018-05-06T12:18:16.402Z,46.6
2018-05-06T12:19:16.490Z,46.52
2018-05-06T12:20:16.553Z,46.53
2018-05-06T12:21:16.428Z,46.61
2018-05-06T12:22:16.338Z,46.45
2018-05-06T12:23:16.448Z,46.55
2018-05-06T12:24:16.566Z,46.6
2018-05-06T12:25:16.417Z,46.49
2018-05-06T12:26:16.355Z,46.59
2018-05-06T12:27:16.513Z,46.58
2018-05-06T12:28:16.367Z,46.51
2018-05-06T12:29:16.321Z,46.56
2018-05-06T12:30:16.482Z,46.61
2018-05-06T12:31:16.374Z,46.48
2018-05-06T12:32:16.330Z,46.52
2018-05-06T12:33:16.365Z,46.58
2018-05-06T12:34:16.385Z,46.42
2018-05-06T12:35:16.419Z,46.56
2018-05-06T12:36:16.368Z,46.59
2018-05-06T12:37:16.536Z,46.52
2018-05-06T12:38:16.334Z,46.52
2018-05-06T12:39:16.503Z,46.55
2018-05-06T12:40:16.323Z,46.47
2018-05-06T12:41:16.327Z,46.56
2018-05-06T12:42:16.553Z,46.58
2018-05-06T12:43:16.698Z,46.45
2018-05-06T12:44:16.472Z,46.51
2018-05-06T12:45:16.560Z,46.62
2018-05-06T12:46:16.338Z,46.43
2018-05-06T12:47:16.395Z,46.52
2018-05-06T12:48:16.380Z,46.56
2018-05-06T12:49:16.568Z,46.46
2018-05-06T12:50:16.625Z,46.54
2018-05-06T12:51:16.425Z,46.6
2018-05-06T12:52:16.416Z,46.49
2018-05-06T12:53:16.627Z,46.55
2018-05-06T12:54:16.790Z,46.58
2018-05-06T12:55:16.519Z,46.57